createdAt,value
2023-02-20T00:01:26.541Z,98.89
2023-02-20T00:06:29.840Z,99.54
2023-02-20T00:11:32.028Z,99.42
2023-02-20T00:16:34.228Z,99.42
2023-02-20T00:21:37.810Z,99.44
2023-02-20T00:26:40.029Z,99.54
2023-02-20T00:31:42.204Z,99.25
2023-02-20T00:36:45.792Z,99.59
2023-02-20T00:41:47.941Z,99.57
2023-02-20T00:46:50.087Z,99.23
2023-02-20T00:51:53.735Z,99.82
2023-02-20T00:56:55.584Z,100.00
2023-02-20T01:01:57.968Z,100.00
2023-02-20T01:07:01.200Z,100.00
2023-02-20T01:12:03.851Z,100.00
2023-02-20T01:17:05.986Z,100.00
2023-02-20T01:22:09.497Z,100.00
2023-02-20T01:27:11.257Z,100.00
2023-02-20T01:32:13.762Z,100.00
2023-02-20T01:37:17.500Z,100.00
2023-02-20T01:42:22.286Z,99.81
2023-02-20T01:47:24.558Z,99.78
2023-02-20T01:52:29.913Z,100.00
2023-02-20T01:57:35.988Z,99.47
2023-02-20T02:02:42.346Z,99.16
2023-02-20T02:07:46.144Z,98.50
2023-02-20T02:12:51.161Z,97.74
2023-02-20T02:18:19.142Z,97.46
2023-02-20T02:24:11.972Z,97.69
2023-02-20T02:29:44.709Z,97.71
2023-02-20T02:35:26.246Z,97.85
2023-02-20T02:40:38.970Z,97.71
2023-02-20T02:45:49.185Z,97.53
2023-02-20T02:50:58.629Z,97.35
2023-02-20T02:56:02.129Z,97.09
2023-02-20T03:01:04.702Z,96.83
2023-02-20T03:06:13.171Z,96.89
2023-02-20T03:11:19.190Z,96.59
2023-02-20T03:16:26.616Z,96.32
2023-02-20T03:21:31.203Z,96.36
2023-02-20T03:26:37.598Z,96.07
2023-02-20T03:31:46.160Z,96.05
2023-02-20T03:36:53.219Z,95.99
2023-02-20T03:42:00.141Z,96.03
2023-02-20T03:47:04.640Z,96.26
2023-02-20T03:52:07.321Z,96.28
2023-02-20T03:57:17.845Z,95.66
2023-02-20T04:02:24.885Z,95.93
2023-02-20T04:07:31.845Z,96.08
2023-02-20T04:12:38.591Z,95.76
2023-02-20T04:17:47.303Z,95.65
2023-02-20T04:22:52.825Z,95.79
2023-02-20T04:27:56.660Z,95.52
2023-02-20T04:32:58.953Z,95.43
2023-02-20T04:38:01.221Z,94.90
2023-02-20T04:43:05.516Z,94.45
2023-02-20T04:48:07.708Z,94.54
2023-02-20T04:53:09.882Z,94.21
2023-02-20T04:58:13.588Z,93.85
2023-02-20T05:03:15.710Z,93.33
2023-02-20T05:08:17.769Z,92.96
2023-02-20T05:13:29.227Z,92.55
2023-02-20T05:18:31.624Z,92.23
2023-02-20T05:23:33.759Z,91.21
2023-02-20T05:28:44.811Z,91.58
2023-02-20T05:33:46.929Z,92.02
2023-02-20T05:38:49.146Z,92.63
2023-02-20T05:43:52.775Z,92.15
2023-02-20T05:48:55.738Z,92.70
2023-02-20T05:53:57.852Z,93.08
2023-02-20T05:59:01.453Z,91.91
2023-02-20T06:04:04.133Z,92.01
2023-02-20T06:09:08.893Z,90.07
2023-02-20T06:14:12.436Z,89.18
2023-02-20T06:19:18.974Z,88.30
2023-02-20T06:24:22.074Z,88.13
2023-02-20T06:29:25.524Z,87.69
2023-02-20T06:34:27.338Z,87.18
2023-02-20T06:39:29.981Z,87.13
2023-02-20T06:44:34.112Z,86.68
2023-02-20T06:49:37.443Z,87.36
2023-02-20T06:54:39.808Z,86.50
2023-02-20T06:59:44.786Z,86.41
2023-02-20T07:04:49.117Z,85.62
2023-02-20T07:09:51.195Z,84.18
2023-02-20T07:14:54.650Z,82.82
2023-02-20T07:19:56.547Z,81.98
2023-02-20T07:24:58.859Z,80.99
2023-02-20T07:30:02.572Z,80.15
2023-02-20T07:35:08.865Z,79.94
2023-02-20T07:40:12.588Z,79.68
2023-02-20T07:45:16.908Z,79.28
2023-02-20T07:50:19.235Z,78.66
2023-02-20T07:55:21.720Z,78.93
2023-02-20T08:00:26.524Z,78.84
2023-02-20T08:05:32.813Z,79.13
2023-02-20T08:10:39.858Z,78.48
2023-02-20T08:15:43.206Z,78.32
2023-02-20T08:20:45.172Z,78.22
2023-02-20T08:25:47.812Z,78.27
2023-02-20T08:30:51.367Z,77.64
2023-02-20T08:35:53.537Z,77.95
2023-02-20T08:40:55.742Z,77.00
2023-02-20T08:45:59.547Z,77.47
2023-02-20T08:51:01.971Z,76.94
2023-02-20T08:56:04.491Z,76.83
2023-02-20T09:01:08.026Z,76.52
2023-02-20T09:06:10.599Z,75.76
2023-02-20T09:11:13.131Z,75.06
2023-02-20T09:16:19.722Z,75.13
2023-02-20T09:21:21.876Z,74.09
2023-02-20T09:26:24.243Z,73.70
2023-02-20T09:31:28.214Z,74.09
2023-02-20T09:36:30.324Z,72.76
2023-02-20T09:41:56.640Z,72.39
2023-02-20T09:47:19.966Z,71.65
2023-02-20T09:52:21.991Z,70.08
2023-02-20T09:57:26.875Z,69.27
2023-02-20T10:02:36.528Z,68.20
2023-02-20T10:07:40.160Z,67.84
2023-02-20T10:12:51.197Z,68.05
2023-02-20T10:18:07.473Z,66.83
2023-02-20T10:23:19.596Z,66.95
2023-02-20T10:28:21.392Z,67.48
2023-02-20T10:33:33.522Z,67.54
2023-02-20T10:38:41.724Z,68.15
2023-02-20T10:43:48.729Z,67.74
2023-02-20T10:48:55.453Z,67.33
2023-02-20T10:54:03.321Z,67.74
2023-02-20T10:59:11.847Z,67.38
2023-02-20T11:04:20.887Z,67.77
2023-02-20T11:09:23.320Z,67.23
2023-02-20T11:20:43.817Z,68.24
2023-02-20T11:26:25.386Z,68.71
2023-02-20T11:31:28.012Z,68.84
2023-02-20T11:36:38.260Z,67.73
2023-02-20T11:41:40.320Z,67.14
2023-02-20T11:46:44.192Z,66.96
2023-02-20T11:51:49.606Z,67.37
2023-02-20T11:57:02.650Z,66.91
2023-02-20T12:02:24.135Z,66.52
2023-02-20T12:07:33.388Z,67.56
2023-02-20T12:12:35.448Z,66.72
2023-02-20T12:18:20.113Z,68.80
2023-02-20T12:23:32.670Z,69.63
2023-02-20T12:28:39.843Z,70.65
2023-02-20T12:33:53.981Z,70.87
2023-02-20T12:38:59.759Z,72.36
2023-02-20T12:44:34.288Z,73.94
2023-02-20T12:49:53.409Z,74.95
2023-02-20T12:55:06.495Z,76.49
2023-02-20T13:00:33.734Z,76.96
2023-02-20T13:05:40.244Z,77.57
2023-02-20T13:10:57.570Z,78.69
2023-02-20T13:16:07.742Z,78.92
2023-02-20T13:21:12.604Z,79.47
2023-02-20T13:26:50.605Z,80.31
2023-02-20T13:31:54.378Z,81.07
2023-02-20T13:36:56.742Z,81.82
2023-02-20T13:42:01.730Z,82.31
2023-02-20T13:47:06.346Z,82.66
2023-02-20T13:52:32.512Z,82.69
2023-02-20T13:57:45.334Z,82.39
2023-02-20T14:02:47.566Z,83.21
2023-02-20T14:07:49.775Z,82.85
2023-02-20T14:13:02.271Z,82.81
2023-02-20T14:24:16.525Z,81.65
2023-02-20T14:29:23.199Z,81.18
2023-02-20T14:34:33.766Z,81.36
2023-02-20T14:39:47.676Z,81.25
2023-02-20T14:44:58.638Z,80.96
2023-02-20T14:50:17.946Z,80.72
2023-02-20T14:55:19.761Z,80.43
2023-02-20T15:00:33.292Z,80.60
2023-02-20T15:05:36.097Z,80.59
2023-02-20T15:10:40.649Z,80.41
2023-02-20T15:15:47.680Z,80.09
2023-02-20T15:20:49.983Z,79.64
2023-02-20T15:25:52.178Z,79.47
2023-02-20T15:31:04.816Z,79.43
2023-02-20T15:36:15.397Z,79.26
2023-02-20T15:41:17.277Z,79.12
2023-02-20T15:46:21.130Z,79.45
2023-02-20T15:51:23.388Z,79.69
2023-02-20T15:56:29.203Z,79.87
2023-02-20T16:01:32.887Z,80.15
2023-02-20T16:06:35.538Z,80.39
2023-02-20T16:11:40.294Z,80.91
2023-02-20T16:16:46.114Z,81.71
2023-02-20T16:21:58.674Z,81.58
2023-02-20T16:27:03.274Z,81.93
2023-02-20T16:32:25.642Z,81.88
2023-02-20T16:37:28.214Z,81.94
2023-02-20T16:42:33.245Z,82.14
2023-02-20T16:47:36.680Z,82.04
2023-02-20T16:52:40.819Z,82.28
2023-02-20T16:57:42.668Z,82.22
2023-02-20T17:02:46.957Z,81.88
2023-02-20T17:07:49.212Z,82.06
2023-02-20T17:12:52.001Z,82.42
2023-02-20T17:17:55.632Z,82.12
2023-02-20T17:23:04.678Z,82.36
2023-02-20T17:28:07.395Z,82.52
2023-02-20T17:33:10.836Z,82.96
2023-02-20T17:38:12.976Z,82.96
2023-02-20T17:43:15.085Z,82.82
2023-02-20T17:48:18.206Z,83.32
2023-02-20T17:53:20.175Z,83.92
2023-02-20T17:58:22.359Z,84.33
2023-02-20T18:03:26.073Z,85.09
2023-02-20T18:08:28.496Z,84.95
2023-02-20T18:13:30.698Z,85.34
2023-02-20T18:18:33.882Z,85.03
2023-02-20T18:23:35.993Z,85.00
2023-02-20T18:28:38.183Z,85.58
2023-02-20T18:33:41.873Z,86.02
2023-02-20T18:38:44.551Z,87.07
2023-02-20T18:43:47.455Z,87.81
2023-02-20T18:48:51.934Z,89.40
2023-02-20T18:53:53.712Z,89.85
2023-02-20T18:58:55.968Z,89.96
2023-02-20T19:04:06.853Z,91.18
2023-02-20T19:09:09.999Z,91.87
2023-02-20T19:14:11.856Z,92.30
2023-02-20T19:19:23.466Z,92.68
2023-02-20T19:24:25.627Z,93.24
2023-02-20T19:29:28.096Z,93.29
2023-02-20T19:34:31.919Z,93.10
2023-02-20T19:39:33.784Z,92.40
2023-02-20T19:44:37.659Z,91.76
2023-02-20T19:49:44.623Z,91.36
2023-02-20T19:54:47.953Z,91.09
2023-02-20T19:59:51.076Z,90.84
2023-02-20T20:04:54.543Z,90.53
2023-02-20T20:09:57.325Z,90.40
2023-02-20T20:14:59.110Z,90.34
2023-02-20T20:20:02.463Z,90.05
2023-02-20T20:25:05.917Z,90.23
2023-02-20T20:30:10.286Z,90.24
2023-02-20T20:35:14.061Z,89.95
2023-02-20T20:40:16.497Z,89.94
2023-02-20T20:45:19.773Z,89.46
2023-02-20T20:50:25.393Z,89.96
2023-02-20T20:55:27.762Z,90.18
2023-02-20T21:00:32.303Z,89.74
2023-02-20T21:05:36.333Z,89.83
2023-02-20T21:10:38.132Z,89.96
2023-02-20T21:15:40.593Z,90.14
2023-02-20T21:20:44.094Z,90.55
2023-02-20T21:25:45.936Z,91.49
2023-02-20T21:30:47.703Z,91.78
2023-02-20T21:35:51.398Z,91.93
2023-02-20T21:40:53.506Z,91.28
2023-02-20T21:45:56.253Z,91.74
2023-02-20T21:50:59.786Z,91.88
2023-02-20T21:56:02.329Z,92.03
2023-02-20T22:01:07.471Z,91.73
2023-02-20T22:06:10.866Z,91.74
2023-02-20T22:11:13.286Z,92.03
2023-02-20T22:16:18.220Z,91.93
2023-02-20T22:21:23.232Z,92.35
2023-02-20T22:26:25.632Z,92.41
2023-02-20T22:31:27.749Z,92.41
2023-02-20T22:36:31.382Z,92.32
2023-02-20T22:41:33.272Z,92.09
2023-02-20T22:46:35.464Z,92.14
2023-02-20T22:51:38.837Z,92.18
2023-02-20T22:56:41.113Z,92.60
2023-02-20T23:01:43.421Z,93.14
2023-02-20T23:06:47.449Z,93.76
2023-02-20T23:11:49.506Z,94.17
2023-02-20T23:16:51.225Z,95.36
2023-02-20T23:21:54.764Z,95.91
2023-02-20T23:26:56.960Z,96.76
2023-02-20T23:31:59.158Z,96.23
2023-02-20T23:37:02.758Z,96.50
2023-02-20T23:42:05.179Z,96.45
2023-02-20T23:47:07.305Z,96.53
2023-02-20T23:52:16.374Z,96.26
2023-02-20T23:57:19.126Z,96.08
